sensor_id;sensor_type;location;lat;lon;timestamp;pressure;altitude;pressure_sealevel;temperature;humidity
11349;BME280;5729;43.570;27.826;2023-04-08T00:00:48;99519.22;;;8.29;100.00
11349;BME280;5729;43.570;27.826;2023-04-08T00:03:14;99519.63;;;8.19;100.00
11349;BME280;5729;43.570;27.826;2023-04-08T00:05:40;99524.59;;;8.29;100.00
11349;BME280;5729;43.570;27.826;2023-04-08T00:08:05;99513.06;;;8.29;100.00
11349;BME280;5729;43.570;27.826;2023-04-08T00:10:31;99520.50;;;8.11;100.00
11349;BME280;5729;43.570;27.826;2023-04-08T00:12:56;99514.69;;;8.09;100.00
11349;BME280;5729;43.570;27.826;2023-04-08T00:15:22;99522.31;;;8.19;100.00
11349;BME280;5729;43.570;27.826;2023-04-08T00:17:47;99527.38;;;8.21;100.00
11349;BME280;5729;43.570;27.826;2023-04-08T00:20:13;99532.09;;;8.24;100.00
11349;BME280;5729;43.570;27.826;2023-04-08T00:22:38;99529.84;;;8.26;100.00
11349;BME280;5729;43.570;27.826;2023-04-08T00:25:04;99525.78;;;8.20;100.00
11349;BME280;5729;43.570;27.826;2023-04-08T00:27:32;99522.41;;;8.11;100.00
11349;BME280;5729;43.570;27.826;2023-04-08T00:29:57;99537.19;;;8.17;100.00
11349;BME280;5729;43.570;27.826;2023-04-08T00:32:24;99534.03;;;8.15;100.00
11349;BME280;5729;43.570;27.826;2023-04-08T00:34:50;99531.34;;;8.15;100.00
11349;BME280;5729;43.570;27.826;2023-04-08T00:37:15;99523.63;;;8.13;100.00
11349;BME280;5729;43.570;27.826;2023-04-08T00:39:41;99514.47;;;8.14;100.00
11349;BME280;5729;43.570;27.826;2023-04-08T00:42:07;99529.34;;;8.12;100.00
11349;BME280;5729;43.570;27.826;2023-04-08T00:44:32;99522.97;;;8.16;100.00
11349;BME280;5729;43.570;27.826;2023-04-08T00:46:58;99519.03;;;8.14;100.00
11349;BME280;5729;43.570;27.826;2023-04-08T00:49:24;99527.22;;;8.17;100.00
11349;BME280;5729;43.570;27.826;2023-04-08T00:51:50;99522.00;;;8.21;100.00
11349;BME280;5729;43.570;27.826;2023-04-08T00:54:15;99525.19;;;8.14;100.00
11349;BME280;5729;43.570;27.826;2023-04-08T00:56:42;99530.31;;;8.07;100.00
11349;BME280;5729;43.570;27.826;2023-04-08T00:59:09;99500.19;;;8.01;100.00
11349;BME280;5729;43.570;27.826;2023-04-08T01:02:06;99526.84;;;8.07;100.00
11349;BME280;5729;43.570;27.826;2023-04-08T01:07:17;99526.72;;;7.82;100.00
11349;BME280;5729;43.570;27.826;2023-04-08T01:09:53;99529.28;;;7.79;100.00
11349;BME280;5729;43.570;27.826;2023-04-08T01:12:29;99526.00;;;7.73;100.00
11349;BME280;5729;43.570;27.826;2023-04-08T01:15:00;99528.03;;;7.76;100.00
11349;BME280;5729;43.570;27.826;2023-04-08T01:17:28;99532.28;;;7.77;100.00
11349;BME280;5729;43.570;27.826;2023-04-08T01:19:55;99523.00;;;7.75;100.00
11349;BME280;5729;43.570;27.826;2023-04-08T01:22:57;99520.16;;;7.71;100.00
11349;BME280;5729;43.570;27.826;2023-04-08T01:25:32;99519.25;;;7.67;100.00
11349;BME280;5729;43.570;27.826;2023-04-08T01:27:59;99523.50;;;7.68;100.00
11349;BME280;5729;43.570;27.826;2023-04-08T01:30:27;99524.47;;;7.63;100.00
11349;BME280;5729;43.570;27.826;2023-04-08T01:32:55;99510.75;;;7.65;100.00
11349;BME280;5729;43.570;27.826;2023-04-08T01:35:22;99523.84;;;7.67;100.00
11349;BME280;5729;43.570;27.826;2023-04-08T01:37:49;99516.75;;;7.62;100.00
11349;BME280;5729;43.570;27.826;2023-04-08T01:40:17;99521.81;;;7.63;100.00
11349;BME280;5729;43.570;27.826;2023-04-08T01:42:43;99509.34;;;7.59;100.00
11349;BME280;5729;43.570;27.826;2023-04-08T01:45:10;99520.53;;;7.61;100.00
11349;BME280;5729;43.570;27.826;2023-04-08T01:47:36;99517.59;;;7.54;100.00
11349;BME280;5729;43.570;27.826;2023-04-08T01:50:03;99514.13;;;7.53;100.00
11349;BME280;5729;43.570;27.826;2023-04-08T01:52:32;99512.28;;;7.45;100.00
11349;BME280;5729;43.570;27.826;2023-04-08T01:54:59;99515.31;;;7.44;100.00
11349;BME280;5729;43.570;27.826;2023-04-08T01:57:27;99514.84;;;7.42;100.00
11349;BME280;5729;43.570;27.826;2023-04-08T01:59:58;99507.91;;;7.41;100.00
11349;BME280;5729;43.570;27.826;2023-04-08T02:02:25;99510.09;;;7.39;100.00
11349;BME280;5729;43.570;27.826;2023-04-08T02:04:53;99506.78;;;7.42;100.00
11349;BME280;5729;43.570;27.826;2023-04-08T02:07:18;99510.25;;;7.42;100.00
11349;BME280;5729;43.570;27.826;2023-04-08T02:09:44;99489.97;;;7.33;100.00
11349;BME280;5729;43.570;27.826;2023-04-08T02:12:10;99503.78;;;7.43;100.00
11349;BME280;5729;43.570;27.826;2023-04-08T02:14:36;99508.69;;;7.41;100.00
11349;BME280;5729;43.570;27.826;2023-04-08T02:17:09;99510.72;;;7.44;100.00
11349;BME280;5729;43.570;27.826;2023-04-08T02:19:56;99509.47;;;7.42;100.00
11349;BME280;5729;43.570;27.826;2023-04-08T02:22:30;99504.59;;;7.35;100.00
11349;BME280;5729;43.570;27.826;2023-04-08T02:25:00;99513.81;;;7.25;100.00
11349;BME280;5729;43.570;27.826;2023-04-08T02:27:28;99509.19;;;7.35;100.00
11349;BME280;5729;43.570;27.826;2023-04-08T02:29:55;99518.78;;;7.36;100.00
11349;BME280;5729;43.570;27.826;2023-04-08T02:32:22;99512.53;;;7.32;100.00
11349;BME280;5729;43.570;27.826;2023-04-08T02:34:50;99513.63;;;7.31;100.00
11349;BME280;5729;43.570;27.826;2023-04-08T02:37:16;99520.09;;;7.29;100.00
11349;BME280;5729;43.570;27.826;2023-04-08T02:39:41;99510.03;;;7.26;100.00
11349;BME280;5729;43.570;27.826;2023-04-08T02:42:06;99503.72;;;7.22;100.00
11349;BME280;5729;43.570;27.826;2023-04-08T02:44:32;99510.38;;;7.16;100.00
11349;BME280;5729;43.570;27.826;2023-04-08T02:46:57;99511.03;;;7.13;100.00
11349;BME280;5729;43.570;27.826;2023-04-08T02:49:23;99507.44;;;7.09;100.00
11349;BME280;5729;43.570;27.826;2023-04-08T02:51:48;99509.53;;;6.95;100.00
11349;BME280;5729;43.570;27.826;2023-04-08T02:54:14;99502.91;;;6.92;100.00
11349;BME280;5729;43.570;27.826;2023-04-08T02:56:39;99510.81;;;6.89;100.00
11349;BME280;5729;43.570;27.826;2023-04-08T02:59:05;99515.88;;;6.82;100.00
11349;BME280;5729;43.570;27.826;2023-04-08T03:01:31;99513.50;;;6.80;100.00
11349;BME280;5729;43.570;27.826;2023-04-08T03:03:56;99512.91;;;6.75;100.00
11349;BME280;5729;43.570;27.826;2023-04-08T03:06:22;99526.16;;;6.71;100.00
11349;BME280;5729;43.570;27.826;2023-04-08T03:08:47;99519.06;;;6.67;100.00
11349;BME280;5729;43.570;27.826;2023-04-08T03:11:12;99517.03;;;6.55;100.00
11349;BME280;5729;43.570;27.826;2023-04-08T03:13:38;99539.13;;;6.52;100.00
11349;BME280;5729;43.570;27.826;2023-04-08T03:16:03;99528.41;;;6.43;100.00
11349;BME280;5729;43.570;27.826;2023-04-08T03:18:29;99530.63;;;6.33;100.00
11349;BME280;5729;43.570;27.826;2023-04-08T03:20:55;99540.22;;;6.34;100.00
11349;BME280;5729;43.570;27.826;2023-04-08T03:23:20;99543.69;;;6.34;100.00
11349;BME280;5729;43.570;27.826;2023-04-08T03:25:46;99544.19;;;6.28;100.00
11349;BME280;5729;43.570;27.826;2023-04-08T03:28:11;99538.38;;;6.17;100.00
11349;BME280;5729;43.570;27.826;2023-04-08T03:30:36;99551.25;;;6.24;100.00
11349;BME280;5729;43.570;27.826;2023-04-08T03:33:02;99555.22;;;6.17;100.00
11349;BME280;5729;43.570;27.826;2023-04-08T03:35:29;99546.22;;;6.13;100.00
11349;BME280;5729;43.570;27.826;2023-04-08T03:37:55;99553.94;;;6.15;100.00
11349;BME280;5729;43.570;27.826;2023-04-08T03:40:20;99555.84;;;6.14;100.00
11349;BME280;5729;43.570;27.826;2023-04-08T03:42:45;99553.66;;;6.08;100.00
11349;BME280;5729;43.570;27.826;2023-04-08T03:45:11;99556.16;;;5.96;100.00
11349;BME280;5729;43.570;27.826;2023-04-08T03:47:36;99553.63;;;5.99;100.00
11349;BME280;5729;43.570;27.826;2023-04-08T03:50:02;99563.38;;;6.04;100.00
11349;BME280;5729;43.570;27.826;2023-04-08T03:52:27;99558.31;;;5.85;100.00
11349;BME280;5729;43.570;27.826;2023-04-08T03:54:53;99568.88;;;5.99;100.00
11349;BME280;5729;43.570;27.826;2023-04-08T03:57:18;99569.06;;;5.94;100.00
11349;BME280;5729;43.570;27.826;2023-04-08T03:59:43;99564.78;;;5.93;100.00
11349;BME280;5729;43.570;27.826;2023-04-08T04:02:09;99576.25;;;5.84;100.00
11349;BME280;5729;43.570;27.826;2023-04-08T04:04:34;99579.75;;;5.94;100.00
11349;BME280;5729;43.570;27.826;2023-04-08T04:07:01;99574.41;;;6.11;100.00
11349;BME280;5729;43.570;27.826;2023-04-08T04:09:26;99574.25;;;6.16;100.00
11349;BME280;5729;43.570;27.826;2023-04-08T04:11:52;99573.81;;;6.31;100.00
11349;BME280;5729;43.570;27.826;2023-04-08T04:14:17;99580.72;;;6.41;100.00
11349;BME280;5729;43.570;27.826;2023-04-08T04:16:43;99587.94;;;6.49;100.00
11349;BME280;5729;43.570;27.826;2023-04-08T04:19:08;99592.50;;;6.57;100.00
11349;BME280;5729;43.570;27.826;2023-04-08T04:21:34;99582.75;;;6.61;100.00
11349;BME280;5729;43.570;27.826;2023-04-08T04:23:59;99587.91;;;6.66;100.00
11349;BME280;5729;43.570;27.826;2023-04-08T04:26:24;99583.03;;;6.77;100.00
11349;BME280;5729;43.570;27.826;2023-04-08T04:28:50;99593.56;;;6.82;100.00
11349;BME280;5729;43.570;27.826;2023-04-08T04:31:23;99585.50;;;6.90;100.00
11349;BME280;5729;43.570;27.826;2023-04-08T04:33:50;99588.31;;;7.03;100.00
11349;BME280;5729;43.570;27.826;2023-04-08T04:36:16;99591.47;;;7.05;100.00
11349;BME280;5729;43.570;27.826;2023-04-08T04:38:43;99585.75;;;7.15;100.00
11349;BME280;5729;43.570;27.826;2023-04-08T04:41:09;99586.81;;;7.22;100.00
11349;BME280;5729;43.570;27.826;2023-04-08T04:43:34;99590.13;;;7.28;100.00
11349;BME280;5729;43.570;27.826;2023-04-08T04:45:59;99585.56;;;7.28;100.00
11349;BME280;5729;43.570;27.826;2023-04-08T04:48:26;99580.34;;;7.23;100.00
11349;BME280;5729;43.570;27.826;2023-04-08T04:50:55;99582.66;;;7.42;100.00
11349;BME280;5729;43.570;27.826;2023-04-08T04:53:21;99589.72;;;7.47;100.00
11349;BME280;5729;43.570;27.826;2023-04-08T04:55:46;99594.13;;;7.51;100.00
11349;BME280;5729;43.570;27.826;2023-04-08T04:58:12;99600.44;;;7.55;100.00
11349;BME280;5729;43.570;27.826;2023-04-08T05:00:37;99603.97;;;7.68;100.00
11349;BME280;5729;43.570;27.826;2023-04-08T05:03:02;99602.22;;;7.72;100.00
11349;BME280;5729;43.570;27.826;2023-04-08T05:05:28;99603.16;;;7.76;100.00
11349;BME280;5729;43.570;27.826;2023-04-08T05:07:53;99602.47;;;7.88;100.00
11349;BME280;5729;43.570;27.826;2023-04-08T05:10:19;99602.97;;;8.02;100.00
11349;BME280;5729;43.570;27.826;2023-04-08T05:12:45;99609.75;;;8.08;100.00
11349;BME280;5729;43.570;27.826;2023-04-08T05:15:10;99604.31;;;8.17;100.00
11349;BME280;5729;43.570;27.826;2023-04-08T05:17:37;99612.38;;;8.17;100.00
11349;BME280;5729;43.570;27.826;2023-04-08T05:20:03;99602.66;;;8.24;100.00
11349;BME280;5729;43.570;27.826;2023-04-08T05:22:28;99607.47;;;8.40;100.00
11349;BME280;5729;43.570;27.826;2023-04-08T05:24:54;99605.66;;;8.52;100.00
11349;BME280;5729;43.570;27.826;2023-04-08T05:27:19;99605.03;;;8.67;100.00
11349;BME280;5729;43.570;27.826;2023-04-08T05:29:46;99590.59;;;8.72;100.00
11349;BME280;5729;43.570;27.826;2023-04-08T05:32:11;99604.69;;;9.02;100.00
11349;BME280;5729;43.570;27.826;2023-04-08T05:34:37;99607.63;;;9.09;100.00
11349;BME280;5729;43.570;27.826;2023-04-08T05:37:02;99597.81;;;9.25;100.00
11349;BME280;5729;43.570;27.826;2023-04-08T05:39:28;99596.13;;;9.45;100.00
11349;BME280;5729;43.570;27.826;2023-04-08T05:41:53;99607.44;;;9.63;100.00
11349;BME280;5729;43.570;27.826;2023-04-08T05:44:19;99596.69;;;9.63;100.00
11349;BME280;5729;43.570;27.826;2023-04-08T05:46:45;99605.88;;;9.86;100.00
11349;BME280;5729;43.570;27.826;2023-04-08T05:49:10;99610.00;;;9.96;100.00
11349;BME280;5729;43.570;27.826;2023-04-08T05:51:37;99602.16;;;10.03;100.00
11349;BME280;5729;43.570;27.826;2023-04-08T05:54:03;99611.09;;;10.07;100.00
11349;BME280;5729;43.570;27.826;2023-04-08T05:56:29;99606.50;;;10.19;100.00
11349;BME280;5729;43.570;27.826;2023-04-08T05:58:56;99587.97;;;10.30;100.00
11349;BME280;5729;43.570;27.826;2023-04-08T06:01:22;99591.28;;;10.39;100.00
11349;BME280;5729;43.570;27.826;2023-04-08T06:03:47;99605.06;;;10.22;100.00
11349;BME280;5729;43.570;27.826;2023-04-08T06:06:13;99605.91;;;10.38;100.00
11349;BME280;5729;43.570;27.826;2023-04-08T06:08:40;99599.09;;;10.57;100.00
11349;BME280;5729;43.570;27.826;2023-04-08T06:11:06;99609.84;;;10.69;100.00
11349;BME280;5729;43.570;27.826;2023-04-08T06:13:31;99606.47;;;10.87;100.00
11349;BME280;5729;43.570;27.826;2023-04-08T06:15:57;99598.16;;;11.08;100.00
11349;BME280;5729;43.570;27.826;2023-04-08T06:18:23;99594.28;;;11.37;100.00
11349;BME280;5729;43.570;27.826;2023-04-08T06:20:48;99602.84;;;11.74;100.00
11349;BME280;5729;43.570;27.826;2023-04-08T06:23:14;99609.41;;;12.08;100.00
11349;BME280;5729;43.570;27.826;2023-04-08T06:25:40;99613.44;;;12.14;100.00
11349;BME280;5729;43.570;27.826;2023-04-08T06:28:06;99611.31;;;12.23;100.00
11349;BME280;5729;43.570;27.826;2023-04-08T06:30:31;99605.91;;;12.23;100.00
11349;BME280;5729;43.570;27.826;2023-04-08T06:32:57;99605.53;;;12.44;100.00
11349;BME280;5729;43.570;27.826;2023-04-08T06:35:22;99601.13;;;12.55;100.00
11349;BME280;5729;43.570;27.826;2023-04-08T06:37:47;99599.97;;;12.95;100.00
11349;BME280;5729;43.570;27.826;2023-04-08T06:40:13;99609.66;;;12.96;100.00
11349;BME280;5729;43.570;27.826;2023-04-08T06:42:38;99597.91;;;12.88;100.00
11349;BME280;5729;43.570;27.826;2023-04-08T06:45:07;99605.22;;;12.88;99.92
11349;BME280;5729;43.570;27.826;2023-04-08T06:47:33;99595.34;;;12.76;100.00
11349;BME280;5729;43.570;27.826;2023-04-08T06:49:58;99594.66;;;12.79;100.00
11349;BME280;5729;43.570;27.826;2023-04-08T06:52:24;99598.94;;;13.03;100.00
11349;BME280;5729;43.570;27.826;2023-04-08T06:54:49;99591.69;;;13.07;100.00
11349;BME280;5729;43.570;27.826;2023-04-08T06:57:15;99591.41;;;13.35;100.00
11349;BME280;5729;43.570;27.826;2023-04-08T06:59:40;99588.69;;;13.35;100.00
11349;BME280;5729;43.570;27.826;2023-04-08T07:02:05;99592.84;;;13.78;97.22
11349;BME280;5729;43.570;27.826;2023-04-08T07:04:31;99595.59;;;14.08;93.71
11349;BME280;5729;43.570;27.826;2023-04-08T07:06:56;99589.63;;;14.25;93.37
11349;BME280;5729;43.570;27.826;2023-04-08T07:09:22;99598.66;;;13.76;89.90
11349;BME280;5729;43.570;27.826;2023-04-08T07:11:47;99591.91;;;13.93;94.64
11349;BME280;5729;43.570;27.826;2023-04-08T07:14:13;99593.06;;;14.22;93.78
11349;BME280;5729;43.570;27.826;2023-04-08T07:16:38;99597.84;;;14.62;86.30
11349;BME280;5729;43.570;27.826;2023-04-08T07:19:03;99593.97;;;14.97;82.58
11349;BME280;5729;43.570;27.826;2023-04-08T07:21:29;99599.50;;;15.07;82.81
11349;BME280;5729;43.570;27.826;2023-04-08T07:23:55;99595.53;;;15.42;80.73
11349;BME280;5729;43.570;27.826;2023-04-08T07:26:21;99597.72;;;15.73;75.35
11349;BME280;5729;43.570;27.826;2023-04-08T07:28:46;99602.84;;;15.78;77.65
11349;BME280;5729;43.570;27.826;2023-04-08T07:31:14;99608.00;;;15.97;72.06
11349;BME280;5729;43.570;27.826;2023-04-08T07:33:40;99597.41;;;15.78;69.52
11349;BME280;5729;43.570;27.826;2023-04-08T07:36:06;99600.59;;;15.94;69.61
11349;BME280;5729;43.570;27.826;2023-04-08T07:38:32;99606.19;;;15.57;74.67
11349;BME280;5729;43.570;27.826;2023-04-08T07:40:58;99603.47;;;15.61;71.50
11349;BME280;5729;43.570;27.826;2023-04-08T07:43:23;99607.03;;;15.72;68.36
11349;BME280;5729;43.570;27.826;2023-04-08T07:45:49;99602.25;;;16.10;67.40
11349;BME280;5729;43.570;27.826;2023-04-08T07:48:14;99598.78;;;16.13;66.13
11349;BME280;5729;43.570;27.826;2023-04-08T07:50:40;99601.50;;;16.20;65.69
11349;BME280;5729;43.570;27.826;2023-04-08T07:53:05;99605.69;;;16.03;66.96
11349;BME280;5729;43.570;27.826;2023-04-08T07:55:33;99605.00;;;16.13;68.03
11349;BME280;5729;43.570;27.826;2023-04-08T07:57:59;99604.56;;;16.08;65.17
11349;BME280;5729;43.570;27.826;2023-04-08T08:00:25;99598.97;;;15.83;67.40
11349;BME280;5729;43.570;27.826;2023-04-08T08:02:51;99614.94;;;15.88;69.00
11349;BME280;5729;43.570;27.826;2023-04-08T08:05:16;99603.28;;;15.87;64.84
11349;BME280;5729;43.570;27.826;2023-04-08T08:07:42;99599.75;;;15.83;66.56
11349;BME280;5729;43.570;27.826;2023-04-08T08:10:08;99601.97;;;15.67;65.03
11349;BME280;5729;43.570;27.826;2023-04-08T08:12:34;99608.19;;;15.27;66.69
11349;BME280;5729;43.570;27.826;2023-04-08T08:14:59;99604.19;;;15.14;66.96
11349;BME280;5729;43.570;27.826;2023-04-08T08:17:25;99600.47;;;15.29;70.16
11349;BME280;5729;43.570;27.826;2023-04-08T08:19:50;99605.00;;;15.58;66.86
11349;BME280;5729;43.570;27.826;2023-04-08T08:22:15;99610.63;;;15.83;64.54
11349;BME280;5729;43.570;27.826;2023-04-08T08:24:41;99597.16;;;16.05;64.86
11349;BME280;5729;43.570;27.826;2023-04-08T08:27:09;99600.91;;;16.55;65.11
11349;BME280;5729;43.570;27.826;2023-04-08T08:29:35;99602.63;;;17.23;60.03
11349;BME280;5729;43.570;27.826;2023-04-08T08:32:01;99589.38;;;18.03;58.31
11349;BME280;5729;43.570;27.826;2023-04-08T08:34:28;99604.22;;;18.93;55.03
11349;BME280;5729;43.570;27.826;2023-04-08T08:36:53;99587.13;;;19.85;50.08
11349;BME280;5729;43.570;27.826;2023-04-08T08:39:20;99596.59;;;20.49;46.16
11349;BME280;5729;43.570;27.826;2023-04-08T08:41:45;99595.13;;;21.25;44.67
11349;BME280;5729;43.570;27.826;2023-04-08T08:44:11;99599.75;;;21.31;43.10
11349;BME280;5729;43.570;27.826;2023-04-08T08:46:42;99595.41;;;21.07;43.89
11349;BME280;5729;43.570;27.826;2023-04-08T08:49:08;99600.59;;;20.71;43.62
11349;BME280;5729;43.570;27.826;2023-04-08T08:51:33;99598.84;;;21.11;45.00
11349;BME280;5729;43.570;27.826;2023-04-08T08:54:03;99598.19;;;21.30;43.41
11349;BME280;5729;43.570;27.826;2023-04-08T08:56:28;99600.16;;;21.30;44.07
11349;BME280;5729;43.570;27.826;2023-04-08T08:58:54;99606.81;;;21.02;42.27
11349;BME280;5729;43.570;27.826;2023-04-08T09:01:30;99603.13;;;20.55;45.37
11349;BME280;5729;43.570;27.826;2023-04-08T09:06:31;99598.13;;;21.57;45.04
11349;BME280;5729;43.570;27.826;2023-04-08T09:08:56;99597.22;;;22.50;41.57
11349;BME280;5729;43.570;27.826;2023-04-08T09:11:22;99608.22;;;22.11;42.51
11349;BME280;5729;43.570;27.826;2023-04-08T09:13:47;99614.66;;;21.30;44.21
11349;BME280;5729;43.570;27.826;2023-04-08T09:16:14;99615.22;;;20.61;44.22
11349;BME280;5729;43.570;27.826;2023-04-08T09:18:42;99630.25;;;20.08;45.42
11349;BME280;5729;43.570;27.826;2023-04-08T09:21:10;99621.47;;;18.79;49.26
11349;BME280;5729;43.570;27.826;2023-04-08T09:26:12;99627.19;;;17.91;53.86
11349;BME280;5729;43.570;27.826;2023-04-08T09:28:39;99629.09;;;17.40;57.68
11349;BME280;5729;43.570;27.826;2023-04-08T09:31:21;99624.84;;;17.54;58.85
11349;BME280;5729;43.570;27.826;2023-04-08T09:33:48;99629.91;;;17.80;56.16
11349;BME280;5729;43.570;27.826;2023-04-08T09:36:15;99617.31;;;18.39;53.69
11349;BME280;5729;43.570;27.826;2023-04-08T09:38:41;99621.38;;;18.94;50.59
11349;BME280;5729;43.570;27.826;2023-04-08T09:41:07;99618.00;;;18.72;50.61
11349;BME280;5729;43.570;27.826;2023-04-08T09:43:40;99619.94;;;18.68;50.75
11349;BME280;5729;43.570;27.826;2023-04-08T09:46:09;99627.03;;;18.47;52.64
11349;BME280;5729;43.570;27.826;2023-04-08T09:48:39;99617.50;;;18.88;50.11
11349;BME280;5729;43.570;27.826;2023-04-08T09:51:06;99625.88;;;18.48;50.26
11349;BME280;5729;43.570;27.826;2023-04-08T09:53:37;99616.50;;;18.46;52.64
11349;BME280;5729;43.570;27.826;2023-04-08T09:56:10;99620.66;;;18.82;51.47
11349;BME280;5729;43.570;27.826;2023-04-08T09:58:58;99612.44;;;20.64;49.70
11349;BME280;5729;43.570;27.826;2023-04-08T10:01:47;99618.88;;;21.82;44.35
11349;BME280;5729;43.570;27.826;2023-04-08T10:04:15;99614.47;;;22.51;44.02
11349;BME280;5729;43.570;27.826;2023-04-08T10:06:43;99623.63;;;22.44;40.77
11349;BME280;5729;43.570;27.826;2023-04-08T10:09:09;99617.00;;;21.55;42.99
11349;BME280;5729;43.570;27.826;2023-04-08T10:11:35;99616.38;;;21.21;44.50
11349;BME280;5729;43.570;27.826;2023-04-08T10:14:01;99619.69;;;21.05;45.68
11349;BME280;5729;43.570;27.826;2023-04-08T10:16:27;99614.78;;;20.93;46.51
11349;BME280;5729;43.570;27.826;2023-04-08T10:18:54;99614.59;;;21.07;45.01
11349;BME280;5729;43.570;27.826;2023-04-08T10:24:10;99602.63;;;20.94;45.97
11349;BME280;5729;43.570;27.826;2023-04-08T10:26:44;99615.00;;;21.32;46.52
11349;BME280;5729;43.570;27.826;2023-04-08T10:31:50;99608.81;;;24.23;38.93
11349;BME280;5729;43.570;27.826;2023-04-08T10:34:20;99600.16;;;24.38;36.24
11349;BME280;5729;43.570;27.826;2023-04-08T10:36:47;99592.47;;;24.83;36.20
11349;BME280;5729;43.570;27.826;2023-04-08T10:39:13;99597.69;;;25.92;35.71
11349;BME280;5729;43.570;27.826;2023-04-08T10:41:43;99586.91;;;26.50;36.35
11349;BME280;5729;43.570;27.826;2023-04-08T10:44:19;99585.94;;;28.46;32.63
11349;BME280;5729;43.570;27.826;2023-04-08T10:46:45;99594.72;;;28.36;31.98
11349;BME280;5729;43.570;27.826;2023-04-08T10:49:12;99585.47;;;29.32;30.71
11349;BME280;5729;43.570;27.826;2023-04-08T10:51:38;99600.00;;;29.99;28.48
11349;BME280;5729;43.570;27.826;2023-04-08T10:54:08;99594.28;;;29.54;29.40
11349;BME280;5729;43.570;27.826;2023-04-08T10:56:35;99588.88;;;29.99;29.02
11349;BME280;5729;43.570;27.826;2023-04-08T10:59:01;99590.03;;;29.35;29.99
11349;BME280;5729;43.570;27.826;2023-04-08T11:01:36;99593.84;;;29.71;28.62
11349;BME280;5729;43.570;27.826;2023-04-08T11:04:17;99590.22;;;28.57;29.04
11349;BME280;5729;43.570;27.826;2023-04-08T11:06:44;99582.91;;;27.62;32.66
11349;BME280;5729;43.570;27.826;2023-04-08T11:09:11;99584.44;;;27.72;30.32
11349;BME280;5729;43.570;27.826;2023-04-08T11:11:37;99585.09;;;27.27;30.18
11349;BME280;5729;43.570;27.826;2023-04-08T11:14:03;99594.66;;;27.44;30.10
11349;BME280;5729;43.570;27.826;2023-04-08T11:16:30;99583.53;;;27.08;32.54
11349;BME280;5729;43.570;27.826;2023-04-08T11:18:55;99578.38;;;27.37;31.44
11349;BME280;5729;43.570;27.826;2023-04-08T11:21:24;99582.22;;;27.40;32.67
11349;BME280;5729;43.570;27.826;2023-04-08T11:23:54;99585.53;;;28.21;29.62
11349;BME280;5729;43.570;27.826;2023-04-08T11:26:20;99579.63;;;28.37;31.11
11349;BME280;5729;43.570;27.826;2023-04-08T11:28:46;99585.22;;;28.18;29.62
11349;BME280;5729;43.570;27.826;2023-04-08T11:31:15;99562.75;;;28.68;30.85
11349;BME280;5729;43.570;27.826;2023-04-08T11:33:45;99565.06;;;29.11;29.98
11349;BME280;5729;43.570;27.826;2023-04-08T11:36:11;99565.81;;;28.18;29.68
11349;BME280;5729;43.570;27.826;2023-04-08T11:38:40;99564.69;;;28.34;30.05
11349;BME280;5729;43.570;27.826;2023-04-08T11:41:06;99565.34;;;27.65;29.85
11349;BME280;5729;43.570;27.826;2023-04-08T11:43:31;99556.44;;;25.76;31.86
11349;BME280;5729;43.570;27.826;2023-04-08T11:45:57;99557.66;;;23.94;34.09
11349;BME280;5729;43.570;27.826;2023-04-08T11:48:22;99539.22;;;22.64;36.88
11349;BME280;5729;43.570;27.826;2023-04-08T11:51:01;99548.47;;;21.75;39.29
11349;BME280;5729;43.570;27.826;2023-04-08T11:53:28;99547.75;;;21.71;40.33
11349;BME280;5729;43.570;27.826;2023-04-08T11:55:54;99551.09;;;21.59;40.38
11349;BME280;5729;43.570;27.826;2023-04-08T11:58:20;99550.16;;;21.46;40.55
11349;BME280;5729;43.570;27.826;2023-04-08T12:00:45;99540.59;;;20.80;41.32
11349;BME280;5729;43.570;27.826;2023-04-08T12:03:11;99550.13;;;20.42;43.20
11349;BME280;5729;43.570;27.826;2023-04-08T12:05:38;99555.88;;;20.51;42.60
11349;BME280;5729;43.570;27.826;2023-04-08T12:08:03;99554.53;;;19.61;45.48
11349;BME280;5729;43.570;27.826;2023-04-08T12:10:29;99557.44;;;19.80;47.23
11349;BME280;5729;43.570;27.826;2023-04-08T12:12:55;99551.91;;;20.21;46.97
11349;BME280;5729;43.570;27.826;2023-04-08T12:15:20;99546.41;;;20.25;44.95
11349;BME280;5729;43.570;27.826;2023-04-08T12:17:45;99548.75;;;19.51;47.08
11349;BME280;5729;43.570;27.826;2023-04-08T12:20:11;99550.91;;;18.67;48.53
11349;BME280;5729;43.570;27.826;2023-04-08T12:22:38;99548.38;;;18.28;52.54
11349;BME280;5729;43.570;27.826;2023-04-08T12:25:04;99549.59;;;18.06;54.29
11349;BME280;5729;43.570;27.826;2023-04-08T12:27:31;99544.91;;;18.17;54.66
11349;BME280;5729;43.570;27.826;2023-04-08T12:30:00;99535.13;;;18.23;52.80
11349;BME280;5729;43.570;27.826;2023-04-08T12:32:25;99529.75;;;17.98;53.38
11349;BME280;5729;43.570;27.826;2023-04-08T12:34:51;99521.63;;;17.81;55.78
11349;BME280;5729;43.570;27.826;2023-04-08T12:37:17;99547.75;;;17.64;55.63
11349;BME280;5729;43.570;27.826;2023-04-08T12:39:42;99548.13;;;17.55;55.68
11349;BME280;5729;43.570;27.826;2023-04-08T12:42:08;99547.75;;;17.42;57.77
11349;BME280;5729;43.570;27.826;2023-04-08T12:44:33;99553.19;;;17.42;58.59
11349;BME280;5729;43.570;27.826;2023-04-08T12:46:59;99539.59;;;17.35;60.91
11349;BME280;5729;43.570;27.826;2023-04-08T12:49:25;99534.88;;;17.50;59.71
11349;BME280;5729;43.570;27.826;2023-04-08T12:51:53;99535.31;;;17.49;58.63
11349;BME280;5729;43.570;27.826;2023-04-08T12:54:19;99536.47;;;17.40;58.41
11349;BME280;5729;43.570;27.826;2023-04-08T12:56:45;99532.97;;;17.29;62.64
11349;BME280;5729;43.570;27.826;2023-04-08T12:59:13;99531.78;;;17.52;59.11
11349;BME280;5729;43.570;27.826;2023-04-08T13:01:38;99533.75;;;17.33;61.18
11349;BME280;5729;43.570;27.826;2023-04-08T13:04:03;99517.00;;;17.28;63.37
11349;BME280;5729;43.570;27.826;2023-04-08T13:06:29;99521.31;;;17.36;59.95
11349;BME280;5729;43.570;27.826;2023-04-08T13:08:56;99520.53;;;17.25;58.80
11349;BME280;5729;43.570;27.826;2023-04-08T13:11:21;99511.56;;;17.10;60.99